Terminal Aerodrome Forecast
Issued by NWS Pueblo, CO

Home | Current Version | Previous Version | Text Only | Print | Product List | Glossary On
Versions: 1 2 3 4 5 6 7 8 9 10 11 12 13 14 15 16 17 18 19 20 21 22 23 24 25 26 27
000
FTUS45 KPUB 161531 AAB
TAFCOS
TAF AMD
KCOS 161531Z 1616/1712 33022G32KT P6SM VCSH SCT025 OVC060
     FM161800 34014KT P6SM VCSH SCT030 BKN040
     FM170000 35012KT P6SM SCT050 BKN100
     FM170600 36004KT P6SM BKN080
     FM170900 36004KT P6SM VCSH OVC050=

USA.gov is the U.S. government's official web portal to all federal, state and local government web resources and services.